createdAt,value
2022-09-05T00:02:09.209Z,5.00
2022-09-05T00:04:47.062Z,4.97
2022-09-05T00:07:50.647Z,5.03
2022-09-05T00:10:16.113Z,4.87
2022-09-05T00:12:45.082Z,4.50
2022-09-05T00:15:23.500Z,4.93
2022-09-05T00:20:57.189Z,4.70
2022-09-05T00:24:27.483Z,4.73
2022-09-05T00:27:07.538Z,4.87
2022-09-05T00:31:06.607Z,4.97
2022-09-05T00:33:20.256Z,4.87
2022-09-05T00:36:02.717Z,4.33
2022-09-05T00:38:37.103Z,4.40
2022-09-05T00:41:09.488Z,4.60
2022-09-05T00:43:41.525Z,4.50
2022-09-05T00:46:16.123Z,4.70
2022-09-05T00:48:52.544Z,4.83
2022-09-05T00:51:34.412Z,4.80
2022-09-05T00:54:13.325Z,4.60
2022-09-05T00:56:58.600Z,4.17
2022-09-05T00:59:58.815Z,5.50
2022-09-05T01:02:52.788Z,4.33
2022-09-05T01:05:39.171Z,5.13
2022-09-05T01:08:28.515Z,4.57
2022-09-05T01:11:06.935Z,4.50
2022-09-05T01:13:45.127Z,4.23
2022-09-05T01:16:23.102Z,4.37
2022-09-05T01:18:59.566Z,5.10
2022-09-05T01:22:07.533Z,4.00
2022-09-05T01:25:09.737Z,4.13
2022-09-05T01:29:14.527Z,4.50
2022-09-05T01:30:49.547Z,4.60
2022-09-05T01:33:28.317Z,4.77
2022-09-05T01:36:22.969Z,4.30
2022-09-05T01:40:10.460Z,4.87
2022-09-05T01:41:59.001Z,4.47
2022-09-05T01:44:47.212Z,4.97
2022-09-05T01:47:35.277Z,4.30
2022-09-05T01:50:13.660Z,4.50
2022-09-05T01:53:00.003Z,4.43
2022-09-05T01:56:05.132Z,4.60
2022-09-05T01:58:56.865Z,4.50
2022-09-05T02:01:33.362Z,5.00
2022-09-05T02:04:36.377Z,5.03
2022-09-05T02:07:19.436Z,5.03
2022-09-05T02:10:19.586Z,4.90
2022-09-05T02:12:56.718Z,5.17
2022-09-05T02:15:55.437Z,5.23
2022-09-05T02:18:44.320Z,5.37
2022-09-05T02:21:22.169Z,4.47
2022-09-05T02:24:04.845Z,5.10
2022-09-05T02:26:40.477Z,5.30
2022-09-05T02:29:28.878Z,4.83
2022-09-05T02:32:02.646Z,5.43
2022-09-05T02:34:40.157Z,5.10
2022-09-05T02:37:15.816Z,4.80
2022-09-05T02:45:07.848Z,4.83
2022-09-05T02:45:19.266Z,5.20
2022-09-05T02:45:48.720Z,4.80
2022-09-05T02:48:25.336Z,5.07
2022-09-05T02:57:25.072Z,5.03
2022-09-05T02:57:42.881Z,5.00
2022-09-05T02:57:43.492Z,5.43
2022-09-05T03:00:07.484Z,4.27
2022-09-05T03:02:48.024Z,4.60
2022-09-05T03:05:24.013Z,4.97
2022-09-05T03:08:11.240Z,6.07
2022-09-05T03:11:15.929Z,4.80
2022-09-05T03:14:09.155Z,4.70
2022-09-05T03:17:10.849Z,4.97
2022-09-05T03:20:06.900Z,5.17
2022-09-05T03:23:13.142Z,5.40
2022-09-05T03:26:12.662Z,5.53
2022-09-05T03:29:37.590Z,4.80
2022-09-05T03:32:42.937Z,5.00
2022-09-05T03:35:40.938Z,4.73
2022-09-05T03:39:02.519Z,4.93
2022-09-05T03:41:49.288Z,4.83
2022-09-05T03:44:33.508Z,5.03
2022-09-05T03:47:17.627Z,4.63
2022-09-05T03:55:41.128Z,4.30
2022-09-05T03:57:16.931Z,4.93
2022-09-05T03:57:32.466Z,5.23
2022-09-05T04:00:07.772Z,5.03
2022-09-05T04:08:11.434Z,4.97
2022-09-05T04:08:17.878Z,4.80
2022-09-05T04:08:42.601Z,5.20
2022-09-05T04:11:17.341Z,5.47
2022-09-05T04:13:53.420Z,5.30
2022-09-05T04:16:26.326Z,4.73
2022-09-05T04:18:57.437Z,4.60
2022-09-05T04:21:30.669Z,5.10
2022-09-05T04:24:05.378Z,5.00
2022-09-05T04:26:59.255Z,4.87
2022-09-05T04:29:42.966Z,5.93
2022-09-05T04:32:25.697Z,5.00
2022-09-05T04:35:19.945Z,5.10
2022-09-05T04:37:58.699Z,4.63
2022-09-05T04:40:40.993Z,5.23
2022-09-05T04:43:14.572Z,4.37
2022-09-05T04:45:48.736Z,5.00
2022-09-05T04:48:25.347Z,4.87
2022-09-05T04:51:11.619Z,4.87
2022-09-05T04:54:05.657Z,5.40
2022-09-05T04:56:39.125Z,5.57
2022-09-05T05:01:04.525Z,5.50
2022-09-05T05:06:09.960Z,6.20
2022-09-05T05:06:19.104Z,5.97
2022-09-05T05:08:03.201Z,6.57
2022-09-05T05:11:06.162Z,6.87
2022-09-05T05:18:00.552Z,7.23
2022-09-05T05:18:14.532Z,6.93
2022-09-05T05:19:22.021Z,6.80
2022-09-05T05:21:53.614Z,6.67
2022-09-05T05:24:25.545Z,6.83
2022-09-05T05:26:59.293Z,7.00
2022-09-05T05:29:36.759Z,7.80
2022-09-05T05:32:07.691Z,7.40
2022-09-05T05:34:46.169Z,6.83
2022-09-05T05:37:19.547Z,6.30
2022-09-05T05:39:52.092Z,5.87
2022-09-05T05:42:24.470Z,5.90
2022-09-05T05:44:55.137Z,6.40
2022-09-05T05:48:03.200Z,5.67
2022-09-05T05:51:20.584Z,6.27
2022-09-05T05:54:29.851Z,6.03
2022-09-05T05:57:47.826Z,5.90
2022-09-05T06:00:38.565Z,5.40
2022-09-05T06:09:26.762Z,5.90
2022-09-05T06:14:51.767Z,5.80
2022-09-05T06:15:14.172Z,6.53
2022-09-05T06:18:19.127Z,6.00
2022-09-05T06:22:07.672Z,6.57
2022-09-05T06:25:18.120Z,5.63
2022-09-05T06:28:20.157Z,6.30
2022-09-05T06:31:30.799Z,6.53
2022-09-05T06:35:00.117Z,6.10
2022-09-05T06:38:13.688Z,6.27
2022-09-05T06:41:22.153Z,5.43
2022-09-05T06:45:26.809Z,5.77
2022-09-05T06:48:10.488Z,5.43
2022-09-05T06:51:08.539Z,5.60
2022-09-05T06:54:08.898Z,5.30
2022-09-05T06:57:05.652Z,5.40
2022-09-05T07:00:10.337Z,5.20
2022-09-05T07:03:04.603Z,4.90
2022-09-05T07:05:45.092Z,5.00
2022-09-05T07:08:35.187Z,4.90
2022-09-05T07:11:16.722Z,5.00
2022-09-05T07:14:01.751Z,4.43
2022-09-05T07:16:46.811Z,4.13
2022-09-05T07:19:33.301Z,4.37
2022-09-05T07:22:45.989Z,4.87
2022-09-05T07:25:09.626Z,5.00
2022-09-05T07:28:29.273Z,4.77
2022-09-05T07:30:48.850Z,4.00
2022-09-05T07:33:39.880Z,4.27
2022-09-05T07:36:12.750Z,4.90
2022-09-05T07:38:52.104Z,4.10
2022-09-05T07:41:24.451Z,4.67
2022-09-05T07:43:56.773Z,3.97
2022-09-05T07:46:29.605Z,4.10
2022-09-05T07:49:04.002Z,3.97
2022-09-05T07:55:26.254Z,4.73
2022-09-05T07:57:09.518Z,4.00
2022-09-05T07:57:30.000Z,4.33
2022-09-05T08:00:07.115Z,4.10
2022-09-05T08:02:47.020Z,4.40
2022-09-05T08:05:40.389Z,4.67
2022-09-05T08:08:12.446Z,4.27
2022-09-05T08:11:22.217Z,3.70
2022-09-05T08:14:18.171Z,3.90
2022-09-05T08:16:43.779Z,4.00
2022-09-05T08:19:45.967Z,3.80
2022-09-05T08:22:22.475Z,4.00
2022-09-05T08:25:00.959Z,3.93
2022-09-05T08:27:37.635Z,3.50
2022-09-05T08:30:26.082Z,3.73
2022-09-05T08:33:11.267Z,3.50
2022-09-05T08:35:45.430Z,4.10
2022-09-05T08:38:17.250Z,4.00
2022-09-05T08:40:54.087Z,3.90
2022-09-05T08:46:36.633Z,4.00
2022-09-05T08:46:42.015Z,3.30
2022-09-05T08:49:38.697Z,3.50
2022-09-05T08:52:15.568Z,3.50
2022-09-05T08:55:13.634Z,3.03
2022-09-05T08:58:00.648Z,3.30
2022-09-05T09:00:36.155Z,3.20
2022-09-05T09:03:29.983Z,3.00
2022-09-05T09:06:23.237Z,2.73
2022-09-05T09:09:11.735Z,2.93
2022-09-05T09:11:49.015Z,2.77
2022-09-05T09:14:37.804Z,2.40
2022-09-05T09:17:20.732Z,2.70
2022-09-05T09:19:54.023Z,2.50
2022-09-05T09:22:38.006Z,2.38
2022-09-05T09:25:16.043Z,2.60
2022-09-05T09:28:47.550Z,2.53
2022-09-05T09:31:19.124Z,2.40
2022-09-05T09:34:05.454Z,2.50
2022-09-05T09:37:00.445Z,2.50
2022-09-05T09:39:39.689Z,2.47
2022-09-05T09:42:33.753Z,2.30
2022-09-05T09:45:30.570Z,2.10
2022-09-05T09:48:56.137Z,2.20
2022-09-05T09:52:05.397Z,2.58
2022-09-05T09:55:32.284Z,2.60
2022-09-05T09:58:22.554Z,2.30
2022-09-05T10:00:58.030Z,2.33
2022-09-05T10:09:16.394Z,1.80
2022-09-05T10:10:46.166Z,2.15
2022-09-05T10:10:50.463Z,2.38
2022-09-05T10:13:27.283Z,2.00
2022-09-05T10:16:28.803Z,2.03
2022-09-05T10:22:37.657Z,1.83
2022-09-05T10:25:28.981Z,2.00
2022-09-05T10:28:09.006Z,2.10
2022-09-05T10:33:05.242Z,2.50
2022-09-05T10:35:13.681Z,1.95
2022-09-05T10:37:05.389Z,1.80
2022-09-05T10:39:36.899Z,2.10
2022-09-05T10:42:11.038Z,1.60
2022-09-05T10:44:46.684Z,2.08
2022-09-05T10:47:28.356Z,1.70
2022-09-05T10:50:09.298Z,1.90
2022-09-05T10:53:03.559Z,1.95
2022-09-05T10:55:38.997Z,1.90
2022-09-05T10:58:41.832Z,2.00
2022-09-05T11:02:29.327Z,1.90
2022-09-05T11:04:29.123Z,1.90
2022-09-05T11:07:15.487Z,1.80
2022-09-05T11:10:03.442Z,1.70
2022-09-05T11:12:44.395Z,1.80
2022-09-05T11:15:44.030Z,2.00
2022-09-05T11:18:55.935Z,1.98
2022-09-05T11:21:52.764Z,1.70
2022-09-05T11:24:50.659Z,1.60
2022-09-05T11:27:31.163Z,1.63
2022-09-05T11:30:05.546Z,2.03
2022-09-05T11:36:06.834Z,1.60
2022-09-05T11:39:50.728Z,1.88
2022-09-05T11:43:05.463Z,1.67
2022-09-05T11:46:10.622Z,1.90
2022-09-05T11:49:05.000Z,2.00
2022-09-05T11:52:12.997Z,2.00
2022-09-05T11:55:21.093Z,2.10
2022-09-05T11:58:29.632Z,1.70
2022-09-05T12:01:42.162Z,1.60
2022-09-05T12:04:43.611Z,1.70
2022-09-05T12:07:31.730Z,1.75
2022-09-05T12:10:45.715Z,1.40
2022-09-05T12:13:37.135Z,1.88
2022-09-05T12:16:20.205Z,1.70
2022-09-05T12:19:19.303Z,1.73
2022-09-05T12:22:09.634Z,1.50
2022-09-05T12:25:26.539Z,1.60
2022-09-05T12:27:59.954Z,1.60
2022-09-05T12:31:07.298Z,1.50
2022-09-05T12:36:05.995Z,1.98
2022-09-05T12:39:40.280Z,1.73
2022-09-05T12:41:32.787Z,1.58
2022-09-05T12:42:49.821Z,1.70
2022-09-05T12:45:41.395Z,1.90
2022-09-05T12:48:17.892Z,1.60
2022-09-05T12:50:57.403Z,1.67
2022-09-05T12:53:35.196Z,1.65
2022-09-05T12:57:31.861Z,1.60
2022-09-05T13:02:57.795Z,1.60
2022-09-05T13:03:01.950Z,1.60
2022-09-05T13:05:02.338Z,1.65
2022-09-05T13:07:43.019Z,1.65
2022-09-05T13:14:49.304Z,1.60
2022-09-05T13:14:55.287Z,1.58
2022-09-05T13:16:05.663Z,2.40
2022-09-05T13:18:42.675Z,2.08
2022-09-05T13:21:23.335Z,1.88
2022-09-05T13:24:06.326Z,6.18
2022-09-05T13:26:40.143Z,1.45
2022-09-05T13:29:16.110Z,1.98
2022-09-05T13:37:54.693Z,3.08
2022-09-05T13:38:05.343Z,1.65
2022-09-05T13:40:58.290Z,1.73
2022-09-05T13:43:32.432Z,1.55
2022-09-05T13:46:11.302Z,2.03
2022-09-05T13:51:42.179Z,1.90
2022-09-05T13:54:39.593Z,1.80
2022-09-05T13:57:37.198Z,2.70
2022-09-05T14:00:53.091Z,1.92
2022-09-05T14:03:55.688Z,2.08
2022-09-05T14:10:29.734Z,2.00
2022-09-05T14:13:02.766Z,2.38
2022-09-05T14:15:40.452Z,1.98
2022-09-05T14:18:21.182Z,2.10
2022-09-05T14:21:15.993Z,1.80
2022-09-05T14:23:57.040Z,2.05
2022-09-05T14:26:31.900Z,1.90
2022-09-05T14:29:07.515Z,2.08
2022-09-05T14:37:36.451Z,2.22
2022-09-05T14:37:50.882Z,2.10
2022-09-05T14:38:07.923Z,1.88
2022-09-05T14:41:23.449Z,1.85
2022-09-05T14:44:44.809Z,2.10
2022-09-05T14:47:36.568Z,1.90
2022-09-05T14:50:30.038Z,2.10
2022-09-05T14:56:42.293Z,2.05
2022-09-05T15:02:41.077Z,2.00
2022-09-05T15:02:51.984Z,2.00
2022-09-05T15:04:45.296Z,2.10
2022-09-05T15:07:20.959Z,1.90
2022-09-05T15:12:15.153Z,1.90
2022-09-05T15:13:00.613Z,2.00
2022-09-05T15:15:31.667Z,1.88
2022-09-05T15:18:04.645Z,1.77
2022-09-05T15:20:37.075Z,2.05
2022-09-05T15:23:16.448Z,1.75
2022-09-05T15:25:48.733Z,2.08
2022-09-05T15:28:23.121Z,1.90
2022-09-05T15:31:00.429Z,2.08
2022-09-05T15:33:32.519Z,1.75
2022-09-05T15:36:02.350Z,1.88
2022-09-05T15:38:38.724Z,1.90
2022-09-05T15:41:24.849Z,1.90
2022-09-05T15:44:01.274Z,1.80
2022-09-05T15:46:46.278Z,1.90
2022-09-05T15:49:32.469Z,2.05
2022-09-05T15:52:04.905Z,1.70
2022-09-05T15:54:39.241Z,2.25
2022-09-05T15:57:18.124Z,2.13
2022-09-05T15:59:52.443Z,2.10
2022-09-05T16:02:25.813Z,2.08
2022-09-05T16:10:34.971Z,2.00
2022-09-05T16:10:35.845Z,2.10
2022-09-05T16:11:10.048Z,2.00
2022-09-05T16:13:53.482Z,1.80
2022-09-05T16:23:20.163Z,2.10
2022-09-05T16:23:26.206Z,1.83
2022-09-05T16:23:30.904Z,1.90
2022-09-05T16:25:11.816Z,1.90
2022-09-05T16:27:55.291Z,2.10
2022-09-05T16:30:26.333Z,2.08
2022-09-05T16:33:00.675Z,1.98
2022-09-05T16:35:43.504Z,2.05
2022-09-05T16:38:33.155Z,2.10
2022-09-05T16:41:16.166Z,2.25
2022-09-05T16:43:51.289Z,1.98
2022-09-05T16:46:28.141Z,1.90
2022-09-05T16:49:12.254Z,1.83
2022-09-05T16:51:45.890Z,2.10
2022-09-05T16:54:27.972Z,2.20
2022-09-05T16:57:01.295Z,1.92
2022-09-05T16:59:32.139Z,1.80
2022-09-05T17:02:12.231Z,1.98
2022-09-05T17:05:09.817Z,1.90
2022-09-05T17:08:00.257Z,1.83
2022-09-05T17:10:34.338Z,1.67
2022-09-05T17:13:04.919Z,1.80
2022-09-05T17:15:36.708Z,2.08
2022-09-05T17:18:22.316Z,1.90
2022-09-05T17:21:00.185Z,1.80
2022-09-05T17:28:30.013Z,1.65
2022-09-05T17:29:24.241Z,1.85
2022-09-05T17:32:51.306Z,1.87
2022-09-05T17:35:42.873Z,1.97
2022-09-05T17:38:43.876Z,1.90
2022-09-05T17:41:46.603Z,1.83
2022-09-05T17:44:25.661Z,1.90
2022-09-05T17:47:08.130Z,1.90
2022-09-05T17:49:45.402Z,1.87
2022-09-05T17:52:22.890Z,1.90
2022-09-05T17:54:54.372Z,1.77
2022-09-05T17:57:45.310Z,2.00
2022-09-05T18:00:58.400Z,1.90
2022-09-05T18:04:15.873Z,1.77
2022-09-05T18:06:58.949Z,1.80
2022-09-05T18:10:15.029Z,1.70
2022-09-05T18:13:14.144Z,1.87
2022-09-05T18:16:12.463Z,1.80
2022-09-05T18:19:33.350Z,1.67
2022-09-05T18:21:54.326Z,1.70
2022-09-05T18:24:45.779Z,2.00
2022-09-05T18:27:43.978Z,1.80
2022-09-05T18:30:30.413Z,1.60
2022-09-05T18:33:53.874Z,1.70
2022-09-05T18:36:33.421Z,1.80
2022-09-05T18:39:39.676Z,1.90
2022-09-05T18:42:33.614Z,1.67
2022-09-05T18:45:14.439Z,1.90
2022-09-05T18:47:57.071Z,1.90
2022-09-05T18:50:32.514Z,1.77
2022-09-05T18:53:08.727Z,1.90
2022-09-05T18:56:13.819Z,2.00
2022-09-05T18:59:10.144Z,2.10
2022-09-05T19:01:47.541Z,2.20
2022-09-05T19:04:40.434Z,2.07
2022-09-05T19:07:18.582Z,1.80
2022-09-05T19:10:33.885Z,2.10
2022-09-05T19:12:58.986Z,2.23
2022-09-05T19:15:31.415Z,2.10
2022-09-05T19:18:26.823Z,1.80
2022-09-05T19:21:12.877Z,2.10
2022-09-05T19:23:54.401Z,2.10
2022-09-05T19:26:24.016Z,2.07
2022-09-05T19:36:50.444Z,2.23
2022-09-05T19:36:51.245Z,1.90
2022-09-05T19:37:10.872Z,2.10
2022-09-05T19:38:13.781Z,2.10
2022-09-05T19:47:29.231Z,2.10
2022-09-05T19:47:35.918Z,2.13
2022-09-05T19:47:37.953Z,1.87
2022-09-05T19:49:20.122Z,2.10
2022-09-05T19:51:48.636Z,2.20
2022-09-05T19:54:30.942Z,2.00
2022-09-05T19:57:27.585Z,2.30
2022-09-05T20:00:01.547Z,2.03
2022-09-05T20:02:33.187Z,2.50
2022-09-05T20:05:04.980Z,2.50
2022-09-05T20:07:35.940Z,2.40
2022-09-05T20:10:07.309Z,2.40
2022-09-05T20:12:39.899Z,2.40
2022-09-05T20:15:38.732Z,2.80
2022-09-05T20:18:20.727Z,2.23
2022-09-05T20:20:58.300Z,2.50
2022-09-05T20:23:31.069Z,2.13
2022-09-05T20:26:02.654Z,2.50
2022-09-05T20:28:35.986Z,2.47
2022-09-05T20:31:08.474Z,2.07
2022-09-05T20:33:50.241Z,2.47
2022-09-05T20:43:09.906Z,2.20
2022-09-05T20:43:30.600Z,2.50
2022-09-05T20:43:32.445Z,2.47
2022-09-05T20:45:01.201Z,2.40
2022-09-05T20:49:41.593Z,2.43
2022-09-05T20:54:06.455Z,2.23
2022-09-05T20:54:13.192Z,2.20
2022-09-05T20:56:11.087Z,2.33
2022-09-05T20:58:41.076Z,2.03
2022-09-05T21:01:21.060Z,2.30
2022-09-05T21:03:58.965Z,2.40
2022-09-05T21:06:34.097Z,2.60
2022-09-05T21:09:15.449Z,2.60
2022-09-05T21:11:50.677Z,2.20
2022-09-05T21:14:22.688Z,2.60
2022-09-05T21:17:00.609Z,2.60
2022-09-05T21:19:31.576Z,2.80
2022-09-05T21:22:05.242Z,2.63
2022-09-05T21:24:33.974Z,2.60
2022-09-05T21:27:17.561Z,2.77
2022-09-05T21:29:56.594Z,2.30
2022-09-05T21:32:38.002Z,2.67
2022-09-05T21:35:34.499Z,2.73
2022-09-05T21:38:02.055Z,2.67
2022-09-05T21:40:30.506Z,2.80
2022-09-05T21:47:33.395Z,2.47
2022-09-05T21:47:41.437Z,2.93
2022-09-05T21:48:39.401Z,2.73
2022-09-05T21:51:12.920Z,2.33
2022-09-05T21:56:50.299Z,2.70
2022-09-05T21:59:29.146Z,2.90
2022-09-05T21:59:41.347Z,2.87
2022-09-05T22:02:17.225Z,2.93
2022-09-05T22:04:47.129Z,3.00
2022-09-05T22:07:32.366Z,2.50
2022-09-05T22:10:03.208Z,2.87
2022-09-05T22:12:33.660Z,2.60
2022-09-05T22:15:26.425Z,2.50
2022-09-05T22:18:08.151Z,2.70
2022-09-05T22:20:44.514Z,2.53
2022-09-05T22:23:13.409Z,2.40
2022-09-05T22:25:41.748Z,2.23
2022-09-05T22:28:13.449Z,2.80
2022-09-05T22:30:43.401Z,2.90
2022-09-05T22:33:13.104Z,2.60
2022-09-05T22:35:42.193Z,2.60
2022-09-05T22:38:16.413Z,2.80
2022-09-05T22:40:46.179Z,2.83
2022-09-05T22:43:16.165Z,3.00
2022-09-05T22:45:44.429Z,2.83
2022-09-05T22:48:15.580Z,2.33
2022-09-05T22:50:44.100Z,3.00
2022-09-05T22:53:12.449Z,2.80
2022-09-05T22:55:42.305Z,3.40
2022-09-05T22:58:12.568Z,3.07
2022-09-05T23:00:44.158Z,2.73
2022-09-05T23:03:12.452Z,3.17
2022-09-05T23:05:42.073Z,3.23
2022-09-05T23:08:10.972Z,3.00
2022-09-05T23:10:39.672Z,3.20
2022-09-05T23:13:10.167Z,3.20
2022-09-05T23:15:38.804Z,2.97
2022-09-05T23:18:07.420Z,2.93
2022-09-05T23:20:36.001Z,3.70
2022-09-05T23:23:07.583Z,3.30
2022-09-05T23:25:37.309Z,3.20
2022-09-05T23:28:09.674Z,2.70
2022-09-05T23:30:39.421Z,3.43
2022-09-05T23:33:09.288Z,3.40
2022-09-05T23:35:38.180Z,3.10
2022-09-05T23:38:11.998Z,3.10
2022-09-05T23:40:40.590Z,3.53
2022-09-05T23:43:09.137Z,3.20
2022-09-05T23:45:37.406Z,3.23
2022-09-05T23:48:05.825Z,3.40
2022-09-05T23:50:34.064Z,3.20
2022-09-05T23:53:04.675Z,3.13
2022-09-05T23:55:34.616Z,3.20
2022-09-05T23:58:02.892Z,3.60
